Time;durP1;ratioP1;P1;durP2;ratioP2;P2;SDS_P1;SDS_P2;PMS_P1;PMS_P2;Temp;Humidity;BMP_temperature;BMP_pressure;BME280_temperature;BME280_humidity;BME280_pressure;Samples;Min_cycle;Max_cycle;Signal;HPM_P1;HPM_P2
2020/12/11 00:01:25;;;;;;;47.63;16.70;;;6.00;89.50;;;;;;5018933;28;20477;-56
2020/12/11 00:03:51;;;;;;;56.72;15.95;;;6.00;89.50;;;;;;5010428;28;20046;-56
2020/12/11 00:06:23;;;;;;;63.58;17.35;;;5.90;89.50;;;;;;5011372;28;20038;-57
2020/12/11 00:08:49;;;;;;;44.08;16.08;;;6.00;89.50;;;;;;5022191;28;20029;-56
2020/12/11 00:11:14;;;;;;;46.33;15.57;;;5.90;89.60;;;;;;5003406;28;20440;-57
2020/12/11 00:13:40;;;;;;;48.15;15.65;;;5.90;89.40;;;;;;5010995;28;20529;-57
2020/12/11 00:16:05;;;;;;;43.28;14.98;;;5.90;89.60;;;;;;5011196;28;20492;-56
2020/12/11 00:18:31;;;;;;;37.75;15.93;;;5.80;89.60;;;;;;5010335;28;20030;-56
2020/12/11 00:21:00;;;;;;;46.40;15.40;;;5.90;89.70;;;;;;5016229;28;20060;-57
2020/12/11 00:23:26;;;;;;;40.15;15.68;;;5.80;89.60;;;;;;4996526;28;20026;-55
2020/12/11 00:25:58;;;;;;;42.47;15.90;;;5.90;89.60;;;;;;5013694;28;20117;-56
2020/12/11 00:28:26;;;;;;;44.97;15.32;;;5.80;89.40;;;;;;5031757;28;20026;-56
2020/12/11 00:30:52;;;;;;;47.03;15.15;;;5.90;89.60;;;;;;5025760;28;20109;-56
2020/12/11 00:33:18;;;;;;;40.97;17.08;;;5.80;89.90;;;;;;5023161;28;20025;-55
2020/12/11 00:35:44;;;;;;;44.00;14.73;;;5.80;89.70;;;;;;5010429;28;20042;-55
2020/12/11 00:38:09;;;;;;;39.50;15.90;;;5.80;89.60;;;;;;5017388;28;20034;-56
2020/12/11 00:40:35;;;;;;;49.72;16.15;;;5.80;90.10;;;;;;5018022;28;20469;-57
2020/12/11 00:43:00;;;;;;;44.53;15.65;;;5.70;89.60;;;;;;5013215;28;20044;-57
2020/12/11 00:45:26;;;;;;;41.70;14.90;;;5.70;89.60;;;;;;5018445;28;20033;-55
2020/12/11 00:47:51;;;;;;;35.25;14.93;;;5.70;89.60;;;;;;5011158;28;20086;-55
2020/12/11 00:50:17;;;;;;;43.95;15.32;;;5.70;89.80;;;;;;5016520;28;20553;-56
2020/12/11 00:52:42;;;;;;;52.47;15.27;;;5.70;89.80;;;;;;5018818;28;20496;-55
2020/12/11 00:55:08;;;;;;;43.55;15.50;;;5.70;89.90;;;;;;5012717;28;20037;-57
2020/12/11 00:57:33;;;;;;;37.38;13.85;;;5.60;89.80;;;;;;5005430;28;20493;-55
2020/12/11 00:59:59;;;;;;;38.08;14.32;;;5.70;89.90;;;;;;5006997;28;20091;-57
2020/12/11 01:02:24;;;;;;;47.63;14.90;;;5.70;90.00;;;;;;5007372;28;20113;-56
2020/12/11 01:04:50;;;;;;;43.10;14.27;;;5.60;89.80;;;;;;5008297;28;20037;-57
2020/12/11 01:07:15;;;;;;;31.08;14.07;;;5.60;89.80;;;;;;5018324;28;20406;-56
2020/12/11 01:09:41;;;;;;;37.00;13.82;;;5.60;89.90;;;;;;5000248;28;20029;-55
2020/12/11 01:12:06;;;;;;;31.92;13.77;;;5.60;89.90;;;;;;5022439;28;20036;-56
2020/12/11 01:14:32;;;;;;;32.92;14.80;;;5.60;89.80;;;;;;5011787;28;20474;-55
2020/12/11 01:16:57;;;;;;;40.33;13.57;;;5.50;89.80;;;;;;5021286;28;20088;-56
2020/12/11 01:19:23;;;;;;;45.50;14.82;;;5.50;89.90;;;;;;5003792;28;20030;-55
2020/12/11 01:21:48;;;;;;;37.85;14.07;;;5.50;89.80;;;;;;5009384;28;20030;-56
2020/12/11 01:24:14;;;;;;;39.42;15.27;;;5.50;89.80;;;;;;5009583;28;20489;-56
2020/12/11 01:26:45;;;;;;;42.90;15.25;;;5.50;89.80;;;;;;5021559;28;20034;-56
2020/12/11 01:29:10;;;;;;;26.05;13.80;;;5.50;89.90;;;;;;5015057;28;20037;-57
2020/12/11 01:31:36;;;;;;;43.85;14.98;;;5.50;90.00;;;;;;5020770;28;20035;-56
2020/12/11 01:34:01;;;;;;;37.55;14.07;;;5.50;89.90;;;;;;5011812;28;20481;-55
2020/12/11 01:36:27;;;;;;;29.20;13.45;;;5.40;89.90;;;;;;5017949;28;20037;-56
2020/12/11 01:38:52;;;;;;;27.55;14.05;;;5.40;90.00;;;;;;5033242;28;20038;-56
2020/12/11 01:41:18;;;;;;;37.75;13.30;;;5.40;89.90;;;;;;5006742;28;20038;-56
2020/12/11 01:43:44;;;;;;;34.30;13.68;;;5.40;90.00;;;;;;4973987;28;20037;-55
2020/12/11 01:46:16;;;;;;;28.92;13.77;;;5.20;89.80;;;;;;5006539;28;20036;-57
2020/12/11 01:48:42;;;;;;;32.22;12.65;;;5.30;89.80;;;;;;5013153;28;20022;-57
2020/12/11 01:51:08;;;;;;;31.67;13.63;;;5.30;89.80;;;;;;5008016;28;20068;-57
2020/12/11 01:53:33;;;;;;;39.88;13.38;;;5.30;89.80;;;;;;5008317;28;20061;-55
2020/12/11 01:55:59;;;;;;;30.17;13.30;;;5.30;89.90;;;;;;4999075;28;20379;-55
2020/12/11 01:58:24;;;;;;;32.20;13.02;;;5.30;89.90;;;;;;4991082;28;20050;-55
2020/12/11 02:00:51;;;;;;;27.20;13.75;;;5.30;90.00;;;;;;4991366;28;20034;-56
2020/12/11 02:03:16;;;;;;;25.48;13.15;;;5.20;89.90;;;;;;5007159;28;20394;-56
2020/12/11 02:05:42;;;;;;;29.05;13.00;;;5.20;89.80;;;;;;5006839;28;20026;-57
2020/12/11 02:08:07;;;;;;;26.98;13.30;;;5.20;89.90;;;;;;5007829;28;20447;-57
2020/12/11 02:10:33;;;;;;;27.55;13.10;;;5.20;89.90;;;;;;5007029;28;20088;-56
2020/12/11 02:13:08;;;;;;;25.13;13.40;;;5.20;89.90;;;;;;5008946;28;20044;-57
2020/12/11 02:15:34;;;;;;;29.92;11.75;;;5.10;90.00;;;;;;4991562;28;20034;-56
2020/12/11 02:17:59;;;;;;;20.10;11.35;;;5.10;89.90;;;;;;4990267;28;20403;-55
2020/12/11 02:20:25;;;;;;;26.05;12.52;;;5.10;89.80;;;;;;5000007;28;20029;-55
2020/12/11 02:22:50;;;;;;;25.40;12.50;;;5.10;89.70;;;;;;5005272;28;20213;-57
2020/12/11 02:25:16;;;;;;;34.70;13.18;;;5.10;89.80;;;;;;5009175;28;20029;-56
2020/12/11 02:27:42;;;;;;;23.10;12.35;;;5.10;89.90;;;;;;5009659;28;20030;-57
2020/12/11 02:30:07;;;;;;;28.08;12.05;;;5.00;89.80;;;;;;5005173;28;20485;-55
2020/12/11 02:32:33;;;;;;;26.20;11.73;;;5.10;89.90;;;;;;5007913;28;20149;-56
2020/12/11 02:34:58;;;;;;;26.67;13.15;;;5.10;89.90;;;;;;5007247;28;20144;-55
2020/12/11 02:37:24;;;;;;;26.45;12.02;;;5.00;89.80;;;;;;5008434;28;20026;-55
2020/12/11 02:39:49;;;;;;;29.80;12.20;;;5.00;89.80;;;;;;5009044;28;20102;-56
2020/12/11 02:42:15;;;;;;;19.95;12.10;;;5.00;90.00;;;;;;4991147;28;20105;-57
2020/12/11 02:44:40;;;;;;;28.10;12.63;;;5.00;89.90;;;;;;5007909;28;20041;-55
2020/12/11 02:47:06;;;;;;;25.88;12.13;;;5.00;89.90;;;;;;5003876;28;20026;-56
2020/12/11 02:49:31;;;;;;;21.20;11.13;;;4.90;89.80;;;;;;5005959;28;20041;-55
2020/12/11 02:51:57;;;;;;;20.45;11.77;;;4.90;89.80;;;;;;5008500;28;20030;-57
2020/12/11 02:54:22;;;;;;;21.60;11.80;;;4.90;89.80;;;;;;5008870;28;20048;-56
2020/12/11 02:56:48;;;;;;;30.33;12.07;;;4.90;89.90;;;;;;5006897;28;20030;-56
2020/12/11 02:59:13;;;;;;;24.63;11.32;;;4.90;90.00;;;;;;5007580;28;20128;-56
2020/12/11 03:01:39;;;;;;;24.88;12.07;;;4.90;90.00;;;;;;5007147;28;20077;-55
2020/12/11 03:04:04;;;;;;;31.15;12.65;;;4.90;90.00;;;;;;5007591;28;20049;-58
2020/12/11 03:06:31;;;;;;;26.17;12.10;;;4.90;90.00;;;;;;5011943;28;20037;-55
2020/12/11 03:08:58;;;;;;;23.30;11.38;;;4.90;90.00;;;;;;5012407;28;20022;-57
2020/12/11 03:11:23;;;;;;;22.85;11.02;;;4.80;90.00;;;;;;5010696;28;20034;-55
2020/12/11 03:13:49;;;;;;;16.67;10.45;;;4.80;90.00;;;;;;4987570;28;20053;-55
2020/12/11 03:16:16;;;;;;;21.75;11.65;;;4.80;90.00;;;;;;4993865;28;20030;-56
2020/12/11 03:18:42;;;;;;;22.92;10.68;;;4.80;90.00;;;;;;5011707;28;20026;-56
2020/12/11 03:21:08;;;;;;;16.80;12.25;;;4.80;90.00;;;;;;5027036;28;20068;-56
2020/12/11 03:23:33;;;;;;;22.05;10.68;;;4.70;90.00;;;;;;5019314;28;20021;-56
2020/12/11 03:25:59;;;;;;;19.85;11.57;;;4.70;90.00;;;;;;5020477;28;20378;-55
2020/12/11 03:28:24;;;;;;;21.20;11.23;;;4.70;90.00;;;;;;5015872;28;20046;-55
2020/12/11 03:30:50;;;;;;;20.17;11.43;;;4.70;90.00;;;;;;5011352;28;20030;-55
2020/12/11 03:33:15;;;;;;;22.02;11.23;;;4.70;90.00;;;;;;5018057;28;20036;-56
2020/12/11 03:35:41;;;;;;;18.42;10.95;;;4.70;90.00;;;;;;5009034;28;20026;-56
2020/12/11 03:38:06;;;;;;;21.45;11.43;;;4.70;90.00;;;;;;5008656;28;20389;-55
2020/12/11 03:40:32;;;;;;;17.27;10.95;;;4.70;90.00;;;;;;4974891;28;20072;-56
2020/12/11 03:42:57;;;;;;;20.05;11.20;;;4.70;90.00;;;;;;5024444;28;20071;-54
2020/12/11 03:45:23;;;;;;;19.33;10.57;;;4.60;90.00;;;;;;5014584;28;20068;-56
2020/12/11 03:47:48;;;;;;;22.92;11.43;;;4.60;90.00;;;;;;5011579;28;20677;-56
2020/12/11 03:50:14;;;;;;;21.50;11.75;;;4.60;90.00;;;;;;5006960;28;20501;-56
2020/12/11 03:52:39;;;;;;;16.65;10.57;;;4.60;90.00;;;;;;5010247;28;20473;-57
2020/12/11 03:55:05;;;;;;;21.15;11.00;;;4.60;90.00;;;;;;4993226;28;20030;-55
2020/12/11 03:57:30;;;;;;;20.77;11.65;;;4.60;90.10;;;;;;5011136;28;20084;-55
2020/12/11 03:59:56;;;;;;;22.85;12.20;;;4.60;90.10;;;;;;5011065;28;20617;-57
2020/12/11 04:02:21;;;;;;;20.27;11.13;;;4.50;90.00;;;;;;5025904;28;20051;-57
2020/12/11 04:04:47;;;;;;;45.78;12.48;;;4.50;90.00;;;;;;5013872;28;20481;-56
2020/12/11 04:07:12;;;;;;;33.28;12.68;;;4.50;90.00;;;;;;5024024;28;20113;-54
2020/12/11 04:09:38;;;;;;;30.90;12.20;;;4.50;90.00;;;;;;5009764;28;20057;-54
2020/12/11 04:12:04;;;;;;;29.17;12.75;;;4.50;90.00;;;;;;5011243;28;20030;-57
2020/12/11 04:14:29;;;;;;;32.65;11.55;;;4.40;90.00;;;;;;5009079;28;20045;-56
2020/12/11 04:16:55;;;;;;;32.88;11.00;;;4.40;90.10;;;;;;5010081;28;20129;-56
2020/12/11 04:19:20;;;;;;;28.55;11.02;;;4.40;90.10;;;;;;5007559;28;20487;-56
2020/12/11 04:21:49;;;;;;;28.05;11.10;;;4.50;90.10;;;;;;5010376;28;20033;-55
2020/12/11 04:24:16;;;;;;;29.85;11.45;;;4.40;90.10;;;;;;5025814;28;20471;-56
2020/12/11 04:26:41;;;;;;;34.00;11.50;;;4.40;90.20;;;;;;5011211;28;20022;-56
2020/12/11 04:29:07;;;;;;;24.95;11.10;;;4.40;90.30;;;;;;5009001;28;20377;-55
2020/12/11 04:31:32;;;;;;;23.30;11.00;;;4.30;90.30;;;;;;5005327;28;20520;-55
2020/12/11 04:33:58;;;;;;;19.20;10.65;;;4.40;90.30;;;;;;5009082;28;20033;-56
2020/12/11 04:36:23;;;;;;;20.20;10.55;;;4.40;90.20;;;;;;5010621;28;20057;-55
2020/12/11 04:38:49;;;;;;;25.48;10.88;;;4.40;90.30;;;;;;5010890;28;20037;-56
2020/12/11 04:41:15;;;;;;;27.88;12.35;;;4.40;90.30;;;;;;5010169;28;20369;-55
2020/12/11 04:43:41;;;;;;;19.80;9.60;;;4.40;90.30;;;;;;5007806;28;20053;-57
2020/12/11 04:46:06;;;;;;;23.38;10.90;;;4.40;90.30;;;;;;4991578;28;20064;-55
2020/12/11 04:48:33;;;;;;;22.73;11.32;;;4.30;90.30;;;;;;5022369;28;20038;-55
2020/12/11 04:50:59;;;;;;;21.65;11.40;;;4.30;90.30;;;;;;5002887;28;20108;-57
2020/12/11 04:53:25;;;;;;;24.45;11.80;;;4.30;90.40;;;;;;4974201;28;20022;-56
2020/12/11 04:55:51;;;;;;;21.05;11.10;;;4.30;90.40;;;;;;5007485;28;20080;-57
2020/12/11 04:58:16;;;;;;;23.83;10.95;;;4.30;90.40;;;;;;4988113;28;20104;-56
2020/12/11 05:00:42;;;;;;;18.90;10.35;;;4.30;90.30;;;;;;5008251;28;20026;-56
2020/12/11 05:03:13;;;;;;;20.30;10.40;;;4.30;90.30;;;;;;5008125;28;20557;-55
2020/12/11 05:05:40;;;;;;;25.85;10.30;;;4.30;90.40;;;;;;5015798;28;20470;-55
2020/12/11 05:08:18;;;;;;;30.20;11.43;;;4.30;90.40;;;;;;5009309;28;20099;-56
2020/12/11 05:10:45;;;;;;;32.00;11.27;;;4.30;90.30;;;;;;5007570;28;20022;-55
2020/12/11 05:13:24;;;;;;;21.75;10.75;;;4.30;90.40;;;;;;4991581;28;20037;-56
2020/12/11 05:16:08;;;;;;;24.45;11.13;;;4.20;90.30;;;;;;5008443;28;20117;-56
2020/12/11 05:18:34;;;;;;;18.58;9.93;;;4.30;90.40;;;;;;5007632;28;20474;-57
2020/12/11 05:21:18;;;;;;;14.95;11.13;;;4.30;90.40;;;;;;5001641;28;20030;-57
2020/12/11 05:24:04;;;;;;;23.75;11.23;;;4.20;90.40;;;;;;5016328;28;20109;-55
2020/12/11 05:26:31;;;;;;;20.50;11.75;;;4.30;90.40;;;;;;5007861;28;20026;-54
2020/12/11 05:28:57;;;;;;;24.40;11.68;;;4.30;90.40;;;;;;5008305;28;20101;-56
2020/12/11 05:31:23;;;;;;;21.48;11.02;;;4.20;90.40;;;;;;5009103;28;20038;-57
2020/12/11 05:34:05;;;;;;;17.85;10.95;;;4.20;90.40;;;;;;5007555;28;20458;-55
2020/12/11 05:36:52;;;;;;;17.10;10.43;;;4.30;90.40;;;;;;5007890;28;20034;-57
2020/12/11 05:39:31;;;;;;;19.92;11.63;;;4.20;90.40;;;;;;5011084;28;20022;-56
2020/12/11 05:41:58;;;;;;;18.95;11.65;;;4.20;90.30;;;;;;5009761;28;20026;-58
2020/12/11 05:44:25;;;;;;;20.15;11.10;;;4.30;90.20;;;;;;4991799;28;20056;-57
2020/12/11 05:46:50;;;;;;;17.83;11.85;;;4.20;90.20;;;;;;4991495;28;20084;-56
2020/12/11 05:49:21;;;;;;;16.70;11.95;;;4.20;90.20;;;;;;5007678;28;20021;-57
2020/12/11 05:51:47;;;;;;;18.90;11.88;;;4.20;90.20;;;;;;5006622;28;20064;-56
2020/12/11 05:54:12;;;;;;;20.52;11.05;;;4.30;90.40;;;;;;5023722;28;20502;-56
2020/12/11 05:56:38;;;;;;;15.05;11.07;;;4.20;90.10;;;;;;4991582;28;20080;-56
2020/12/11 05:59:03;;;;;;;15.98;11.85;;;4.10;90.10;;;;;;4991278;28;20034;-56
2020/12/11 06:01:29;;;;;;;19.67;11.98;;;4.10;90.10;;;;;;4990281;28;20033;-55
2020/12/11 06:03:54;;;;;;;16.08;11.35;;;4.10;90.10;;;;;;4985803;28;20037;-56
2020/12/11 06:06:20;;;;;;;18.15;11.43;;;4.10;90.10;;;;;;4991824;28;20497;-55
2020/12/11 06:08:45;;;;;;;15.88;11.52;;;4.10;90.10;;;;;;4991431;28;20045;-57
2020/12/11 06:11:21;;;;;;;18.13;13.02;;;4.10;90.00;;;;;;5014259;28;20021;-55
2020/12/11 06:13:58;;;;;;;17.42;12.63;;;4.10;90.00;;;;;;4995467;28;20489;-56
2020/12/11 06:16:24;;;;;;;18.13;12.48;;;4.10;90.10;;;;;;4987387;28;20034;-57
2020/12/11 06:18:58;;;;;;;19.73;12.38;;;4.10;90.00;;;;;;4994223;28;20044;-56
2020/12/11 06:21:24;;;;;;;21.15;12.90;;;4.10;90.00;;;;;;4991526;28;20037;-57
2020/12/11 06:23:49;;;;;;;20.50;13.02;;;4.00;90.00;;;;;;5007283;28;20026;-55
2020/12/11 06:26:15;;;;;;;24.05;12.73;;;4.10;90.00;;;;;;5006696;28;20034;-58
2020/12/11 06:28:42;;;;;;;16.10;12.00;;;4.00;89.90;;;;;;4989686;28;20473;-56
2020/12/11 06:31:12;;;;;;;23.13;11.48;;;4.10;89.80;;;;;;5004992;28;20030;-57
2020/12/11 06:33:39;;;;;;;26.30;12.18;;;4.00;89.80;;;;;;5007312;28;20033;-57
2020/12/11 06:36:05;;;;;;;21.45;12.98;;;4.10;89.80;;;;;;5008086;28;20018;-55
2020/12/11 06:38:46;;;;;;;26.27;14.38;;;4.10;89.80;;;;;;5010059;28;20044;-55
2020/12/11 06:41:13;;;;;;;22.40;13.38;;;4.00;89.60;;;;;;5008935;28;20507;-56
2020/12/11 06:43:40;;;;;;;20.75;13.68;;;4.00;89.60;;;;;;5009959;28;20034;-55
2020/12/11 06:46:10;;;;;;;18.30;12.88;;;4.00;89.70;;;;;;5011916;28;20018;-54
2020/12/11 06:48:36;;;;;;;16.55;11.98;;;4.00;89.70;;;;;;5010800;28;20088;-57
2020/12/11 06:51:04;;;;;;;20.77;12.98;;;3.90;89.80;;;;;;5021157;28;20026;-54
2020/12/11 06:53:39;;;;;;;16.88;12.70;;;4.00;89.70;;;;;;5008176;28;20469;-56
2020/12/11 06:56:05;;;;;;;23.48;12.90;;;4.00;89.60;;;;;;5024381;28;20458;-56
2020/12/11 06:58:30;;;;;;;21.67;13.38;;;4.00;89.60;;;;;;5010115;28;20105;-57
2020/12/11 07:00:57;;;;;;;17.70;12.75;;;4.00;89.60;;;;;;5010689;28;20036;-58
2020/12/11 07:03:27;;;;;;;30.63;13.02;;;3.90;89.60;;;;;;5012090;28;20144;-55
2020/12/11 07:06:20;;;;;;;17.63;12.40;;;3.90;89.60;;;;;;4996090;28;20029;-56
2020/12/11 07:08:46;;;;;;;20.80;12.93;;;4.00;89.80;;;;;;5012157;28;20045;-58
2020/12/11 07:11:12;;;;;;;21.17;12.77;;;4.00;89.70;;;;;;5013328;28;20252;-57
2020/12/11 07:13:45;;;;;;;17.23;11.95;;;4.00;89.50;;;;;;5011098;28;20109;-57
2020/12/11 07:16:12;;;;;;;34.40;12.07;;;3.90;89.50;;;;;;5009137;28;20026;-54
2020/12/11 07:18:39;;;;;;;18.20;12.40;;;3.90;89.70;;;;;;5016991;28;20454;-58
2020/12/11 07:21:05;;;;;;;22.15;12.05;;;3.90;89.60;;;;;;4995563;28;20018;-56
2020/12/11 07:23:30;;;;;;;20.10;11.65;;;3.90;89.70;;;;;;5034606;28;20034;-57
2020/12/11 07:25:56;;;;;;;16.05;12.18;;;3.90;89.80;;;;;;5013462;28;20053;-56
2020/12/11 07:28:22;;;;;;;18.20;12.80;;;3.90;89.80;;;;;;5019077;28;20025;-55
2020/12/11 07:30:48;;;;;;;18.65;12.82;;;3.90;89.80;;;;;;5014556;28;20036;-56
2020/12/11 07:33:13;;;;;;;17.90;12.73;;;3.90;89.80;;;;;;5009371;28;20044;-56
2020/12/11 07:35:49;;;;;;;20.92;12.38;;;3.90;89.90;;;;;;5013654;28;20038;-55
2020/12/11 07:38:16;;;;;;;23.02;12.55;;;3.90;89.90;;;;;;5018483;28;20477;-58
2020/12/11 07:40:42;;;;;;;15.35;12.10;;;3.90;89.90;;;;;;5012184;28;20552;-55
2020/12/11 07:43:09;;;;;;;55.38;14.27;;;3.90;90.00;;;;;;5015258;28;20025;-55
2020/12/11 07:45:36;;;;;;;67.72;15.43;;;3.80;89.90;;;;;;5015316;28;20100;-57
2020/12/11 07:48:02;;;;;;;59.88;14.60;;;3.90;90.00;;;;;;5015139;28;20137;-55
2020/12/11 07:50:28;;;;;;;35.30;12.25;;;3.80;90.00;;;;;;5028975;28;20046;-57
2020/12/11 07:52:54;;;;;;;28.48;13.32;;;3.90;90.00;;;;;;5004949;28;20034;-57
2020/12/11 07:55:21;;;;;;;31.77;12.88;;;3.90;90.00;;;;;;5014300;28;20025;-57
2020/12/11 07:57:53;;;;;;;18.23;12.10;;;4.00;90.00;;;;;;5012692;28;20029;-56
2020/12/11 08:00:19;;;;;;;25.75;11.98;;;4.00;90.00;;;;;;4999201;28;20053;-55
2020/12/11 08:02:45;;;;;;;19.25;13.10;;;4.00;90.00;;;;;;4983731;28;20075;-56
2020/12/11 08:05:11;;;;;;;23.02;12.43;;;4.00;90.10;;;;;;4992993;28;20124;-55
2020/12/11 08:07:36;;;;;;;25.65;12.15;;;4.00;90.00;;;;;;4998008;28;20409;-57
2020/12/11 08:10:11;;;;;;;27.42;12.32;;;3.90;90.10;;;;;;4987963;28;20034;-55
2020/12/11 08:12:39;;;;;;;19.00;12.68;;;4.00;90.10;;;;;;5018848;28;20113;-55
2020/12/11 08:15:04;;;;;;;30.35;12.73;;;4.00;90.00;;;;;;4994426;28;20796;-55
2020/12/11 08:17:31;;;;;;;19.08;12.23;;;4.00;90.10;;;;;;5004812;28;20029;-55
2020/12/11 08:20:00;;;;;;;29.65;11.95;;;4.00;90.10;;;;;;5005202;28;20478;-58
2020/12/11 08:22:34;;;;;;;19.85;11.70;;;4.00;90.10;;;;;;4992962;28;20473;-56
2020/12/11 08:25:00;;;;;;;25.63;12.50;;;4.00;90.20;;;;;;5021199;28;20021;-56
2020/12/11 08:27:28;;;;;;;16.90;11.63;;;4.00;90.30;;;;;;4987320;28;20121;-56
2020/12/11 08:30:14;;;;;;;29.27;13.00;;;4.00;90.20;;;;;;5001545;28;20108;-58
2020/12/11 08:32:40;;;;;;;23.45;12.40;;;4.00;90.30;;;;;;4981490;28;20026;-57
2020/12/11 08:35:32;;;;;;;29.10;12.27;;;4.10;90.30;;;;;;5003839;28;20053;-55
2020/12/11 08:37:58;;;;;;;41.42;15.10;;;4.10;90.20;;;;;;4994643;28;20420;-56
2020/12/11 08:40:24;;;;;;;37.63;13.38;;;4.10;90.30;;;;;;4985788;28;20045;-56
2020/12/11 08:46:01;;;;;;;41.80;13.77;;;4.10;90.40;;;;;;5005816;28;20072;-58
2020/12/11 08:51:05;;;;;;;37.13;13.88;;;4.20;90.40;;;;;;5003497;28;20510;-56
2020/12/11 08:53:35;;;;;;;31.95;14.07;;;4.20;90.40;;;;;;5006351;28;20024;-56
2020/12/11 08:56:04;;;;;;;50.95;15.35;;;4.20;90.40;;;;;;4986311;28;20046;-56
2020/12/11 08:58:30;;;;;;;39.45;14.30;;;4.20;90.40;;;;;;5019488;28;20052;-55
2020/12/11 09:00:55;;;;;;;60.88;16.33;;;4.20;90.40;;;;;;5004025;28;20029;-58
2020/12/11 09:03:21;;;;;;;47.60;16.13;;;4.20;90.40;;;;;;5003395;28;20030;-55
2020/12/11 09:05:46;;;;;;;64.82;16.23;;;4.20;90.50;;;;;;4983330;28;20042;-58
2020/12/11 09:08:12;;;;;;;60.10;16.83;;;4.20;90.50;;;;;;5004988;28;20205;-56
2020/12/11 09:10:37;;;;;;;86.25;22.35;;;4.20;90.50;;;;;;5005957;28;20041;-57
2020/12/11 09:13:04;;;;;;;57.35;16.73;;;4.20;90.40;;;;;;5007914;28;20100;-56
2020/12/11 09:15:29;;;;;;;53.47;17.35;;;4.20;90.50;;;;;;5004681;28;20108;-57
2020/12/11 09:17:55;;;;;;;60.97;17.92;;;4.20;90.60;;;;;;5002305;28;20109;-56
2020/12/11 09:20:20;;;;;;;77.97;18.20;;;4.20;90.70;;;;;;5006080;28;20136;-55
2020/12/11 09:22:46;;;;;;;74.20;19.67;;;4.20;90.80;;;;;;4999891;28;20278;-57
2020/12/11 09:25:11;;;;;;;61.08;18.42;;;4.30;90.80;;;;;;5007952;28;20486;-57
2020/12/11 09:27:40;;;;;;;103.32;22.00;;;4.30;90.80;;;;;;5007536;28;20037;-58
2020/12/11 09:33:17;;;;;;;93.22;20.10;;;4.30;90.80;;;;;;4966612;28;21117;-57
2020/12/11 09:35:43;;;;;;;70.40;18.73;;;4.40;90.90;;;;;;4999155;28;20041;-57
2020/12/11 09:38:08;;;;;;;70.93;18.58;;;4.40;90.90;;;;;;4987058;28;20083;-56
2020/12/11 09:40:47;;;;;;;85.20;19.38;;;4.40;90.80;;;;;;5004535;28;20116;-56
2020/12/11 09:56:00;;;;;;;90.45;20.40;;;4.50;90.70;;;;;;5008889;28;20764;-57
2020/12/11 09:58:25;;;;;;;80.95;20.23;;;4.50;90.60;;;;;;5002047;28;20482;-58
2020/12/11 10:00:52;;;;;;;100.38;21.20;;;4.60;90.50;;;;;;5004661;28;20026;-56
2020/12/11 10:03:21;;;;;;;61.17;18.83;;;4.60;90.50;;;;;;5002407;28;20517;-58
2020/12/11 10:05:47;;;;;;;72.53;21.33;;;4.60;90.50;;;;;;5019445;28;20064;-57
2020/12/11 10:08:13;;;;;;;106.95;19.45;;;4.60;90.30;;;;;;5003834;28;20109;-56
2020/12/11 10:10:38;;;;;;;110.90;22.45;;;4.60;90.40;;;;;;5002189;28;20460;-56
2020/12/11 10:13:05;;;;;;;105.20;22.70;;;4.60;90.40;;;;;;4998324;28;20030;-56
2020/12/11 10:15:31;;;;;;;95.43;21.65;;;4.60;90.30;;;;;;5002740;28;20057;-56
2020/12/11 10:17:58;;;;;;;95.57;23.52;;;4.60;90.50;;;;;;5003784;28;20110;-56
2020/12/11 10:20:24;;;;;;;87.82;21.55;;;4.60;90.50;;;;;;5004778;28;20021;-56
2020/12/11 10:22:50;;;;;;;77.10;20.58;;;4.70;90.40;;;;;;5006691;28;20099;-55
2020/12/11 10:25:19;;;;;;;92.32;21.05;;;4.70;90.40;;;;;;5002392;28;20021;-56
2020/12/11 10:27:45;;;;;;;77.97;21.52;;;4.70;90.40;;;;;;4995400;28;20038;-57
2020/12/11 10:30:10;;;;;;;81.97;20.40;;;4.70;90.40;;;;;;5005388;28;20055;-57
2020/12/11 10:32:36;;;;;;;81.45;20.73;;;4.70;90.40;;;;;;5024820;28;20521;-57
2020/12/11 10:35:02;;;;;;;80.65;19.73;;;4.80;90.30;;;;;;4985910;28;20518;-56
2020/12/11 10:37:28;;;;;;;88.05;21.45;;;4.70;90.30;;;;;;5004103;28;20018;-57
2020/12/11 10:39:53;;;;;;;93.15;22.45;;;4.80;90.30;;;;;;5002165;28;20065;-57
2020/12/11 10:42:19;;;;;;;75.43;21.35;;;4.80;90.40;;;;;;5006645;28;20088;-55
2020/12/11 10:44:44;;;;;;;83.43;21.67;;;4.80;90.30;;;;;;5004165;28;20060;-57
2020/12/11 10:47:10;;;;;;;98.45;22.33;;;4.90;90.30;;;;;;5018116;28;20050;-57
2020/12/11 10:49:36;;;;;;;84.50;20.70;;;4.90;90.30;;;;;;5016938;28;20029;-55
2020/12/11 10:52:01;;;;;;;98.85;22.63;;;4.90;90.20;;;;;;5001999;28;20041;-57
2020/12/11 10:54:27;;;;;;;99.22;22.05;;;5.00;90.30;;;;;;4964562;28;20482;-55
2020/12/11 10:56:53;;;;;;;83.07;22.25;;;5.00;90.20;;;;;;5004976;28;20030;-57
2020/12/11 10:59:19;;;;;;;112.88;22.13;;;5.00;90.20;;;;;;5002170;28;20032;-58
2020/12/11 11:01:44;;;;;;;90.65;20.75;;;5.00;90.10;;;;;;5001083;28;20434;-55
2020/12/11 11:04:10;;;;;;;94.32;20.33;;;5.00;90.20;;;;;;5000442;28;20069;-58
2020/12/11 11:06:43;;;;;;;120.05;22.33;;;5.00;90.20;;;;;;4999997;28;20088;-58
2020/12/11 11:09:17;;;;;;;130.30;22.55;;;5.10;90.20;;;;;;4995325;28;20371;-56
2020/12/11 11:11:53;;;;;;;89.13;21.90;;;5.10;90.40;;;;;;5020698;28;20105;-57
2020/12/11 11:17:34;;;;;;;135.32;23.52;;;5.20;90.20;;;;;;5009053;28;20109;-56
2020/12/11 11:27:45;;;;;;;129.83;26.77;;;5.30;90.10;;;;;;5009987;28;20056;-58
2020/12/11 11:30:10;;;;;;;137.18;24.83;;;5.30;90.20;;;;;;5007172;28;20022;-57
2020/12/11 11:32:36;;;;;;;263.30;32.72;;;5.40;90.00;;;;;;5006945;28;20033;-58
2020/12/11 11:35:03;;;;;;;130.05;25.52;;;5.50;90.00;;;;;;5007790;28;20038;-58
2020/12/11 11:37:28;;;;;;;129.13;24.60;;;5.40;90.00;;;;;;5009115;28;20028;-56
2020/12/11 11:39:54;;;;;;;182.25;28.48;;;5.40;90.00;;;;;;4991450;28;20030;-56
2020/12/11 11:42:20;;;;;;;94.70;22.88;;;5.40;90.10;;;;;;5009176;28;20022;-56
2020/12/11 11:47:21;;;;;;;112.82;22.55;;;5.40;90.00;;;;;;5019255;28;20069;-56
2020/12/11 11:55:10;;;;;;;101.00;21.10;;;5.50;89.90;;;;;;5001044;28;20140;-57
2020/12/11 11:57:35;;;;;;;104.70;22.70;;;5.50;90.20;;;;;;5016811;28;20030;-57
2020/12/11 12:00:03;;;;;;;107.40;23.15;;;5.50;89.80;;;;;;5018998;28;20501;-57
2020/12/11 12:02:28;;;;;;;99.95;22.05;;;5.50;89.80;;;;;;4997812;28;20034;-58
2020/12/11 12:04:54;;;;;;;80.03;19.83;;;5.50;89.80;;;;;;5002280;28;20038;-56
2020/12/11 12:07:19;;;;;;;67.13;21.25;;;5.50;89.50;;;;;;5010173;28;20391;-57
2020/12/11 12:09:45;;;;;;;68.82;20.02;;;5.50;89.10;;;;;;4991925;28;20026;-57
2020/12/11 12:12:10;;;;;;;92.15;21.92;;;5.50;89.00;;;;;;5007228;28;20092;-58
2020/12/11 12:14:36;;;;;;;74.90;19.52;;;5.50;88.80;;;;;;5024057;28;20691;-56
2020/12/11 12:17:04;;;;;;;106.43;21.90;;;5.50;89.10;;;;;;5021539;28;20119;-59
2020/12/11 12:19:35;;;;;;;66.63;20.13;;;5.50;89.00;;;;;;5007871;28;20030;-58
2020/12/11 12:30:01;;;;;;;77.65;20.48;;;5.50;88.70;;;;;;5004399;28;20036;-57
2020/12/11 12:32:30;;;;;;;80.80;21.85;;;5.50;88.70;;;;;;5006356;28;20034;-56
2020/12/11 12:34:59;;;;;;;64.22;21.10;;;5.50;88.80;;;;;;5012207;28;20026;-56
2020/12/11 12:42:45;;;;;;;76.28;22.08;;;5.60;88.70;;;;;;5007764;28;20038;-56
2020/12/11 12:45:10;;;;;;;87.35;20.20;;;5.60;88.50;;;;;;5008840;28;20025;-58
2020/12/11 12:47:37;;;;;;;91.88;20.90;;;5.60;88.40;;;;;;5007233;28;20317;-56
2020/12/11 12:50:03;;;;;;;93.90;21.75;;;5.70;88.50;;;;;;5009989;28;20137;-56
2020/12/11 12:52:29;;;;;;;87.05;22.02;;;5.70;88.50;;;;;;4990307;28;20101;-57
2020/12/11 12:54:55;;;;;;;97.20;21.00;;;5.70;88.40;;;;;;5002367;28;20045;-58
2020/12/11 12:57:26;;;;;;;84.32;21.80;;;5.70;88.40;;;;;;5008684;28;20453;-57
2020/12/11 13:04:58;;;;;;;81.25;20.92;;;5.70;88.50;;;;;;5002326;28;20049;-57
2020/12/11 13:07:23;;;;;;;64.70;22.20;;;5.70;88.40;;;;;;5008220;28;20458;-57
2020/12/11 13:09:49;;;;;;;75.05;20.20;;;5.80;88.70;;;;;;4997269;28;20025;-57
2020/12/11 13:12:14;;;;;;;65.03;20.65;;;5.70;88.70;;;;;;4999772;28;20128;-57
2020/12/11 13:14:40;;;;;;;83.88;21.77;;;5.80;88.50;;;;;;4998200;28;20101;-57
2020/12/11 13:17:05;;;;;;;70.43;21.38;;;5.80;88.50;;;;;;5003823;28;20022;-57
2020/12/11 13:19:33;;;;;;;67.85;20.50;;;5.80;88.50;;;;;;4987306;28;20421;-56
2020/12/11 13:22:18;;;;;;;85.00;21.38;;;5.90;88.50;;;;;;5003656;28;20030;-57
2020/12/11 13:27:29;;;;;;;66.07;20.77;;;5.90;88.60;;;;;;5003249;28;20156;-56
2020/12/11 13:29:55;;;;;;;75.70;21.00;;;5.90;88.70;;;;;;4995305;28;20025;-56
2020/12/11 13:32:21;;;;;;;71.47;21.15;;;5.90;88.50;;;;;;4997653;28;20037;-58
2020/12/11 13:34:47;;;;;;;82.53;21.33;;;5.90;88.60;;;;;;4996160;28;20046;-56
2020/12/11 13:37:12;;;;;;;84.88;21.95;;;6.00;88.50;;;;;;5004871;28;20033;-56